岡山グライダークラブ活動状況掲示板あなたは無料カウンター人目の訪問者です

岡山グライダークラブ
岡山市浦安南町639-1 岡南飛行場
 使用機:シャイベ式 SF25C型 ファルケ   JA2330
      ヴァレンティン式17E型 タイフーン  JA2342
 練習日:毎日曜日  クラブルーム:電話 086-265-1810
この掲示板は岡山グライダークラブの活動状況をお知らせする掲示板です。
!!!この掲示板は投稿規制をしています。!!!
クラブ関連各種情報は 岡山グライダークラブクラブルーム      を       .
  ブリーフイング情報は  岡山グライダークラブブリーフィングルーム  をご覧下さい。 .
※写真はクリックすると拡大して見ることが出来ます。
岡南飛行場へのアクセス等は 岡南飛行場管理事務所 をご覧ください。
クラブの ホームページ ができました。

 
11月18日
by OGC at 2018/11/18(日) 23:52:10 No.20181118235108  削除コメント
1024 x 683 x 62,455バイト
No.1

11月18日
本日の参加者
  会員      13名
  その他      0名


@本日の様子




METAR
RJBK 180000Z VRB01KT 30KM FEW020CU 11/08 Q1020 A3013
RKOB 180000Z VRB02KT 9999 FEW020 12/07 Q1019
RJOT 180000Z 10003KT 040V130 9999 FEW020 13/09 Q1019
RJOA 180000Z 11004KT 9999 FEW010 SCT020 12/07 Q1019
TAF
RJOB 172305Z 1800/1906 14004KT 9999 FEW020
          TEMPO 1815/1821 4000 -RA BR
RJOT 172309Z 1800/1906 07007KT 9999 FEW025
          BECMG 1815/1818 31005KT
          TEMPO 1818/1900 4000 -RA BR
RJOA 172305Z 1800/1906 16004KT 9999 FEW020
          BECMG 1812/1815 33008KT

本日は天候にも恵まれ、岡南飛行場祭りは大盛況で、例年通り午前、午後の2回、デモフライトを行いました。
飛行場祭り後には、短い訓練フライトを行いました。



解散    17:01

1番機  09:45離陸 撤収機  16:25着陸 

SF25C JA2330 ファルケ     05Flt.1h10min  
17E   JA2342 タイフーン    04Flt.1h00min  
合計                    09Flt.2h10min

    << 戻る || ホームページ || 最新の掲示板へ